sensor_id;sensor_type;location;lat;lon;timestamp;P1;durP1;ratioP1;P2;durP2;ratioP2
78664;SDS011;67981;51.022;-2.870;2023-11-25T00:00:54;6.00;;;2.60;;
78664;SDS011;67981;51.022;-2.870;2023-11-25T00:03:20;10.13;;;2.72;;
78664;SDS011;67981;51.022;-2.870;2023-11-25T00:05:46;7.38;;;3.40;;
78664;SDS011;67981;51.022;-2.870;2023-11-25T00:08:12;5.78;;;1.95;;
78664;SDS011;67981;51.022;-2.870;2023-11-25T00:10:37;5.45;;;2.30;;
78664;SDS011;67981;51.022;-2.870;2023-11-25T00:13:03;7.22;;;2.70;;
78664;SDS011;67981;51.022;-2.870;2023-11-25T00:15:29;5.18;;;2.78;;
78664;SDS011;67981;51.022;-2.870;2023-11-25T00:17:55;9.15;;;5.57;;
78664;SDS011;67981;51.022;-2.870;2023-11-25T00:20:21;7.35;;;2.97;;
78664;SDS011;67981;51.022;-2.870;2023-11-25T00:22:47;6.35;;;2.40;;
78664;SDS011;67981;51.022;-2.870;2023-11-25T00:25:13;5.18;;;2.38;;
78664;SDS011;67981;51.022;-2.870;2023-11-25T00:27:39;6.30;;;2.85;;
78664;SDS011;67981;51.022;-2.870;2023-11-25T00:30:05;6.18;;;2.85;;
78664;SDS011;67981;51.022;-2.870;2023-11-25T00:32:32;10.55;;;3.58;;
78664;SDS011;67981;51.022;-2.870;2023-11-25T00:35:05;4.60;;;2.35;;
78664;SDS011;67981;51.022;-2.870;2023-11-25T00:37:32;4.32;;;2.33;;
78664;SDS011;67981;51.022;-2.870;2023-11-25T00:39:58;4.43;;;2.30;;
78664;SDS011;67981;51.022;-2.870;2023-11-25T00:42:26;6.18;;;2.63;;
78664;SDS011;67981;51.022;-2.870;2023-11-25T00:44:52;4.60;;;2.40;;
78664;SDS011;67981;51.022;-2.870;2023-11-25T00:47:18;4.00;;;2.40;;
78664;SDS011;67981;51.022;-2.870;2023-11-25T00:49:44;4.13;;;2.67;;
78664;SDS011;67981;51.022;-2.870;2023-11-25T00:52:13;3.65;;;2.22;;
78664;SDS011;67981;51.022;-2.870;2023-11-25T00:54:39;4.57;;;2.50;;
78664;SDS011;67981;51.022;-2.870;2023-11-25T00:57:04;5.68;;;2.50;;
78664;SDS011;67981;51.022;-2.870;2023-11-25T00:59:30;5.03;;;2.60;;
78664;SDS011;67981;51.022;-2.870;2023-11-25T01:01:56;3.60;;;1.92;;
78664;SDS011;67981;51.022;-2.870;2023-11-25T01:04:21;8.02;;;2.67;;
78664;SDS011;67981;51.022;-2.870;2023-11-25T01:06:47;3.88;;;2.17;;
78664;SDS011;67981;51.022;-2.870;2023-11-25T01:09:13;5.90;;;2.80;;
78664;SDS011;67981;51.022;-2.870;2023-11-25T01:11:41;8.52;;;3.30;;
78664;SDS011;67981;51.022;-2.870;2023-11-25T01:14:09;6.05;;;3.47;;
78664;SDS011;67981;51.022;-2.870;2023-11-25T01:16:35;4.93;;;2.75;;
78664;SDS011;67981;51.022;-2.870;2023-11-25T01:19:00;9.98;;;2.90;;
78664;SDS011;67981;51.022;-2.870;2023-11-25T01:21:26;4.15;;;2.67;;
78664;SDS011;67981;51.022;-2.870;2023-11-25T01:23:51;9.45;;;3.40;;
78664;SDS011;67981;51.022;-2.870;2023-11-25T01:26:17;5.93;;;2.88;;
78664;SDS011;67981;51.022;-2.870;2023-11-25T01:28:42;6.10;;;3.00;;
78664;SDS011;67981;51.022;-2.870;2023-11-25T01:31:09;8.68;;;2.58;;
78664;SDS011;67981;51.022;-2.870;2023-11-25T01:33:38;10.93;;;2.90;;
78664;SDS011;67981;51.022;-2.870;2023-11-25T01:36:05;8.13;;;3.08;;
78664;SDS011;67981;51.022;-2.870;2023-11-25T01:38:34;6.18;;;2.85;;
78664;SDS011;67981;51.022;-2.870;2023-11-25T01:41:00;6.75;;;2.75;;
78664;SDS011;67981;51.022;-2.870;2023-11-25T01:43:26;8.02;;;2.90;;
78664;SDS011;67981;51.022;-2.870;2023-11-25T01:45:52;6.13;;;3.42;;
78664;SDS011;67981;51.022;-2.870;2023-11-25T01:48:20;7.38;;;3.17;;
78664;SDS011;67981;51.022;-2.870;2023-11-25T01:50:47;9.50;;;2.90;;
78664;SDS011;67981;51.022;-2.870;2023-11-25T01:53:14;5.38;;;3.05;;
78664;SDS011;67981;51.022;-2.870;2023-11-25T01:55:42;3.95;;;2.85;;
78664;SDS011;67981;51.022;-2.870;2023-11-25T01:58:09;6.90;;;3.33;;
78664;SDS011;67981;51.022;-2.870;2023-11-25T02:00:35;5.70;;;2.95;;
78664;SDS011;67981;51.022;-2.870;2023-11-25T02:03:03;7.35;;;3.90;;
78664;SDS011;67981;51.022;-2.870;2023-11-25T02:05:30;5.43;;;2.67;;
78664;SDS011;67981;51.022;-2.870;2023-11-25T02:07:56;6.18;;;2.75;;
78664;SDS011;67981;51.022;-2.870;2023-11-25T02:10:22;5.97;;;2.95;;
78664;SDS011;67981;51.022;-2.870;2023-11-25T02:12:47;6.60;;;3.17;;
78664;SDS011;67981;51.022;-2.870;2023-11-25T02:15:13;7.22;;;2.28;;
78664;SDS011;67981;51.022;-2.870;2023-11-25T02:17:43;4.90;;;2.88;;
78664;SDS011;67981;51.022;-2.870;2023-11-25T02:20:10;6.03;;;3.30;;
78664;SDS011;67981;51.022;-2.870;2023-11-25T02:22:39;4.38;;;2.75;;
78664;SDS011;67981;51.022;-2.870;2023-11-25T02:25:12;6.95;;;2.58;;
78664;SDS011;67981;51.022;-2.870;2023-11-25T02:27:39;9.45;;;2.97;;
78664;SDS011;67981;51.022;-2.870;2023-11-25T02:30:05;8.23;;;2.92;;
78664;SDS011;67981;51.022;-2.870;2023-11-25T02:32:31;4.78;;;3.30;;
78664;SDS011;67981;51.022;-2.870;2023-11-25T02:34:58;5.07;;;2.88;;
78664;SDS011;67981;51.022;-2.870;2023-11-25T02:37:25;6.38;;;2.80;;
78664;SDS011;67981;51.022;-2.870;2023-11-25T02:39:50;5.18;;;3.05;;
78664;SDS011;67981;51.022;-2.870;2023-11-25T02:42:16;4.63;;;2.38;;
78664;SDS011;67981;51.022;-2.870;2023-11-25T02:44:42;6.72;;;2.92;;
78664;SDS011;67981;51.022;-2.870;2023-11-25T02:47:08;6.20;;;2.95;;
78664;SDS011;67981;51.022;-2.870;2023-11-25T02:49:33;3.85;;;2.47;;
78664;SDS011;67981;51.022;-2.870;2023-11-25T02:51:59;3.50;;;2.03;;
78664;SDS011;67981;51.022;-2.870;2023-11-25T02:54:24;6.88;;;2.30;;
78664;SDS011;67981;51.022;-2.870;2023-11-25T02:56:50;3.97;;;2.30;;
78664;SDS011;67981;51.022;-2.870;2023-11-25T02:59:16;6.65;;;2.60;;
78664;SDS011;67981;51.022;-2.870;2023-11-25T03:01:45;4.53;;;2.25;;
78664;SDS011;67981;51.022;-2.870;2023-11-25T03:04:19;4.93;;;2.58;;
78664;SDS011;67981;51.022;-2.870;2023-11-25T03:06:48;5.05;;;2.20;;
78664;SDS011;67981;51.022;-2.870;2023-11-25T03:09:16;6.75;;;3.38;;
78664;SDS011;67981;51.022;-2.870;2023-11-25T03:11:42;8.02;;;3.38;;
78664;SDS011;67981;51.022;-2.870;2023-11-25T03:14:08;7.00;;;3.55;;
78664;SDS011;67981;51.022;-2.870;2023-11-25T03:16:33;6.03;;;3.30;;
78664;SDS011;67981;51.022;-2.870;2023-11-25T03:18:59;5.57;;;3.13;;
78664;SDS011;67981;51.022;-2.870;2023-11-25T03:21:25;6.85;;;2.58;;
78664;SDS011;67981;51.022;-2.870;2023-11-25T03:23:51;7.35;;;3.30;;
78664;SDS011;67981;51.022;-2.870;2023-11-25T03:26:17;6.55;;;2.88;;
78664;SDS011;67981;51.022;-2.870;2023-11-25T03:28:42;8.05;;;3.50;;
78664;SDS011;67981;51.022;-2.870;2023-11-25T03:31:09;6.35;;;3.17;;
78664;SDS011;67981;51.022;-2.870;2023-11-25T03:33:35;6.43;;;2.78;;
78664;SDS011;67981;51.022;-2.870;2023-11-25T03:36:01;5.60;;;3.80;;
78664;SDS011;67981;51.022;-2.870;2023-11-25T03:38:26;6.88;;;3.67;;
78664;SDS011;67981;51.022;-2.870;2023-11-25T03:40:52;7.28;;;3.08;;
78664;SDS011;67981;51.022;-2.870;2023-11-25T03:43:21;7.15;;;2.97;;
78664;SDS011;67981;51.022;-2.870;2023-11-25T03:45:48;4.97;;;3.00;;
78664;SDS011;67981;51.022;-2.870;2023-11-25T03:48:14;6.53;;;3.30;;
78664;SDS011;67981;51.022;-2.870;2023-11-25T03:50:40;6.03;;;3.28;;
78664;SDS011;67981;51.022;-2.870;2023-11-25T03:53:05;6.65;;;2.78;;
78664;SDS011;67981;51.022;-2.870;2023-11-25T03:55:31;7.35;;;2.42;;
78664;SDS011;67981;51.022;-2.870;2023-11-25T03:57:57;3.78;;;2.25;;
78664;SDS011;67981;51.022;-2.870;2023-11-25T04:00:23;4.60;;;2.30;;
78664;SDS011;67981;51.022;-2.870;2023-11-25T04:02:49;3.38;;;2.58;;
78664;SDS011;67981;51.022;-2.870;2023-11-25T04:05:14;5.47;;;3.10;;
78664;SDS011;67981;51.022;-2.870;2023-11-25T04:10:09;3.80;;;2.38;;
78664;SDS011;67981;51.022;-2.870;2023-11-25T04:12:39;5.20;;;2.78;;
78664;SDS011;67981;51.022;-2.870;2023-11-25T04:15:06;3.75;;;2.28;;
78664;SDS011;67981;51.022;-2.870;2023-11-25T04:17:33;8.35;;;2.70;;
78664;SDS011;67981;51.022;-2.870;2023-11-25T04:19:58;4.22;;;2.42;;
78664;SDS011;67981;51.022;-2.870;2023-11-25T04:22:24;7.78;;;3.15;;
78664;SDS011;67981;51.022;-2.870;2023-11-25T04:24:49;5.05;;;3.08;;
78664;SDS011;67981;51.022;-2.870;2023-11-25T04:27:15;6.13;;;2.40;;
78664;SDS011;67981;51.022;-2.870;2023-11-25T04:29:41;6.15;;;2.70;;
78664;SDS011;67981;51.022;-2.870;2023-11-25T04:32:07;7.93;;;3.00;;
78664;SDS011;67981;51.022;-2.870;2023-11-25T04:34:34;5.35;;;2.17;;
78664;SDS011;67981;51.022;-2.870;2023-11-25T04:37:00;4.72;;;2.35;;
78664;SDS011;67981;51.022;-2.870;2023-11-25T04:39:25;8.25;;;2.55;;
78664;SDS011;67981;51.022;-2.870;2023-11-25T04:41:51;5.53;;;2.60;;
78664;SDS011;67981;51.022;-2.870;2023-11-25T04:44:17;8.13;;;3.08;;
78664;SDS011;67981;51.022;-2.870;2023-11-25T04:46:43;3.83;;;2.50;;
78664;SDS011;67981;51.022;-2.870;2023-11-25T04:49:10;5.97;;;2.55;;
78664;SDS011;67981;51.022;-2.870;2023-11-25T04:51:36;7.35;;;2.30;;
78664;SDS011;67981;51.022;-2.870;2023-11-25T04:54:02;6.78;;;2.30;;
78664;SDS011;67981;51.022;-2.870;2023-11-25T04:56:28;5.07;;;2.60;;
78664;SDS011;67981;51.022;-2.870;2023-11-25T04:58:53;4.78;;;2.53;;
78664;SDS011;67981;51.022;-2.870;2023-11-25T05:01:18;4.72;;;2.35;;
78664;SDS011;67981;51.022;-2.870;2023-11-25T05:03:44;11.07;;;3.28;;
78664;SDS011;67981;51.022;-2.870;2023-11-25T05:06:10;5.53;;;2.42;;
78664;SDS011;67981;51.022;-2.870;2023-11-25T05:08:36;4.72;;;2.97;;
78664;SDS011;67981;51.022;-2.870;2023-11-25T05:11:01;4.35;;;2.25;;
78664;SDS011;67981;51.022;-2.870;2023-11-25T05:13:26;7.72;;;3.10;;
78664;SDS011;67981;51.022;-2.870;2023-11-25T05:15:52;5.97;;;2.28;;
78664;SDS011;67981;51.022;-2.870;2023-11-25T05:18:18;5.40;;;2.50;;
78664;SDS011;67981;51.022;-2.870;2023-11-25T05:20:44;4.28;;;2.42;;
78664;SDS011;67981;51.022;-2.870;2023-11-25T05:23:09;6.15;;;2.65;;
78664;SDS011;67981;51.022;-2.870;2023-11-25T05:25:34;6.45;;;2.20;;
78664;SDS011;67981;51.022;-2.870;2023-11-25T05:28:00;7.43;;;2.67;;
78664;SDS011;67981;51.022;-2.870;2023-11-25T05:30:25;3.65;;;2.22;;
78664;SDS011;67981;51.022;-2.870;2023-11-25T05:32:51;7.18;;;1.73;;
78664;SDS011;67981;51.022;-2.870;2023-11-25T05:35:16;6.20;;;2.30;;
78664;SDS011;67981;51.022;-2.870;2023-11-25T05:37:42;7.07;;;2.53;;
78664;SDS011;67981;51.022;-2.870;2023-11-25T05:40:09;5.43;;;1.95;;
78664;SDS011;67981;51.022;-2.870;2023-11-25T05:42:37;6.43;;;2.30;;
78664;SDS011;67981;51.022;-2.870;2023-11-25T05:45:07;6.65;;;2.78;;
78664;SDS011;67981;51.022;-2.870;2023-11-25T05:47:36;4.90;;;2.55;;
78664;SDS011;67981;51.022;-2.870;2023-11-25T05:50:02;4.18;;;2.33;;
78664;SDS011;67981;51.022;-2.870;2023-11-25T05:52:28;5.47;;;1.85;;
78664;SDS011;67981;51.022;-2.870;2023-11-25T05:54:54;3.95;;;2.00;;
78664;SDS011;67981;51.022;-2.870;2023-11-25T05:57:21;5.30;;;2.15;;
78664;SDS011;67981;51.022;-2.870;2023-11-25T05:59:46;2.75;;;1.92;;
78664;SDS011;67981;51.022;-2.870;2023-11-25T06:02:12;5.05;;;2.38;;
78664;SDS011;67981;51.022;-2.870;2023-11-25T06:04:38;8.82;;;2.33;;
78664;SDS011;67981;51.022;-2.870;2023-11-25T06:07:03;5.53;;;2.47;;
78664;SDS011;67981;51.022;-2.870;2023-11-25T06:09:29;5.60;;;2.63;;
78664;SDS011;67981;51.022;-2.870;2023-11-25T06:11:55;3.38;;;2.08;;
78664;SDS011;67981;51.022;-2.870;2023-11-25T06:14:21;6.05;;;2.00;;
78664;SDS011;67981;51.022;-2.870;2023-11-25T06:16:46;4.38;;;2.50;;
78664;SDS011;67981;51.022;-2.870;2023-11-25T06:19:13;4.80;;;3.20;;
78664;SDS011;67981;51.022;-2.870;2023-11-25T06:21:42;4.78;;;2.28;;
78664;SDS011;67981;51.022;-2.870;2023-11-25T06:24:08;4.97;;;2.75;;
78664;SDS011;67981;51.022;-2.870;2023-11-25T06:26:33;3.17;;;2.00;;
78664;SDS011;67981;51.022;-2.870;2023-11-25T06:29:00;8.00;;;4.93;;
78664;SDS011;67981;51.022;-2.870;2023-11-25T06:31:25;5.60;;;3.38;;
78664;SDS011;67981;51.022;-2.870;2023-11-25T06:33:51;5.38;;;2.20;;
78664;SDS011;67981;51.022;-2.870;2023-11-25T06:36:17;5.90;;;3.08;;
78664;SDS011;67981;51.022;-2.870;2023-11-25T06:38:42;3.67;;;1.92;;
78664;SDS011;67981;51.022;-2.870;2023-11-25T06:41:08;3.05;;;1.80;;
78664;SDS011;67981;51.022;-2.870;2023-11-25T06:43:34;1.95;;;1.20;;
78664;SDS011;67981;51.022;-2.870;2023-11-25T06:45:59;3.22;;;2.15;;
78664;SDS011;67981;51.022;-2.870;2023-11-25T06:48:25;3.83;;;1.35;;
78664;SDS011;67981;51.022;-2.870;2023-11-25T06:50:51;6.43;;;2.13;;
78664;SDS011;67981;51.022;-2.870;2023-11-25T06:53:17;4.95;;;2.40;;
78664;SDS011;67981;51.022;-2.870;2023-11-25T06:55:43;5.60;;;1.67;;
78664;SDS011;67981;51.022;-2.870;2023-11-25T06:58:09;3.38;;;1.50;;
78664;SDS011;67981;51.022;-2.870;2023-11-25T07:00:39;3.88;;;1.90;;
78664;SDS011;67981;51.022;-2.870;2023-11-25T07:03:05;4.60;;;2.55;;
78664;SDS011;67981;51.022;-2.870;2023-11-25T07:05:32;4.15;;;1.77;;
78664;SDS011;67981;51.022;-2.870;2023-11-25T07:07:58;4.13;;;2.22;;
78664;SDS011;67981;51.022;-2.870;2023-11-25T07:10:23;2.58;;;1.33;;
78664;SDS011;67981;51.022;-2.870;2023-11-25T07:12:50;3.53;;;1.92;;
78664;SDS011;67981;51.022;-2.870;2023-11-25T07:15:15;4.45;;;2.08;;
78664;SDS011;67981;51.022;-2.870;2023-11-25T07:17:41;3.40;;;1.80;;
78664;SDS011;67981;51.022;-2.870;2023-11-25T07:20:07;3.65;;;2.05;;
78664;SDS011;67981;51.022;-2.870;2023-11-25T07:22:37;5.10;;;2.08;;
78664;SDS011;67981;51.022;-2.870;2023-11-25T07:25:04;4.25;;;2.55;;
78664;SDS011;67981;51.022;-2.870;2023-11-25T07:27:30;3.65;;;2.03;;
78664;SDS011;67981;51.022;-2.870;2023-11-25T07:29:56;4.38;;;2.30;;
78664;SDS011;67981;51.022;-2.870;2023-11-25T07:32:26;3.70;;;1.50;;
78664;SDS011;67981;51.022;-2.870;2023-11-25T07:34:51;4.43;;;2.45;;
78664;SDS011;67981;51.022;-2.870;2023-11-25T07:37:17;8.15;;;2.22;;
78664;SDS011;67981;51.022;-2.870;2023-11-25T07:39:43;3.35;;;1.83;;
78664;SDS011;67981;51.022;-2.870;2023-11-25T07:42:10;3.80;;;1.77;;
78664;SDS011;67981;51.022;-2.870;2023-11-25T07:44:35;5.45;;;2.42;;
78664;SDS011;67981;51.022;-2.870;2023-11-25T07:47:01;5.68;;;2.60;;
78664;SDS011;67981;51.022;-2.870;2023-11-25T07:49:27;3.80;;;2.58;;
78664;SDS011;67981;51.022;-2.870;2023-11-25T07:51:54;4.72;;;2.45;;
78664;SDS011;67981;51.022;-2.870;2023-11-25T07:54:20;10.15;;;5.30;;
78664;SDS011;67981;51.022;-2.870;2023-11-25T07:56:45;9.55;;;3.75;;
78664;SDS011;67981;51.022;-2.870;2023-11-25T07:59:12;6.93;;;3.80;;
78664;SDS011;67981;51.022;-2.870;2023-11-25T08:01:38;7.45;;;2.42;;
78664;SDS011;67981;51.022;-2.870;2023-11-25T08:04:04;16.90;;;7.13;;
78664;SDS011;67981;51.022;-2.870;2023-11-25T08:06:30;60.58;;;31.38;;
78664;SDS011;67981;51.022;-2.870;2023-11-25T08:08:55;26.38;;;15.50;;
78664;SDS011;67981;51.022;-2.870;2023-11-25T08:11:24;17.10;;;10.93;;
78664;SDS011;67981;51.022;-2.870;2023-11-25T08:13:51;8.23;;;4.10;;
78664;SDS011;67981;51.022;-2.870;2023-11-25T08:16:18;105.97;;;55.60;;
78664;SDS011;67981;51.022;-2.870;2023-11-25T08:18:44;47.17;;;33.35;;
78664;SDS011;67981;51.022;-2.870;2023-11-25T08:21:10;31.95;;;19.65;;
78664;SDS011;67981;51.022;-2.870;2023-11-25T08:23:38;36.47;;;21.88;;
78664;SDS011;67981;51.022;-2.870;2023-11-25T08:26:04;79.63;;;48.17;;
78664;SDS011;67981;51.022;-2.870;2023-11-25T08:28:29;70.18;;;38.67;;
78664;SDS011;67981;51.022;-2.870;2023-11-25T08:30:55;110.53;;;67.13;;
78664;SDS011;67981;51.022;-2.870;2023-11-25T08:33:20;139.88;;;89.45;;
78664;SDS011;67981;51.022;-2.870;2023-11-25T08:35:46;97.78;;;61.88;;
78664;SDS011;67981;51.022;-2.870;2023-11-25T08:38:11;94.40;;;61.15;;
78664;SDS011;67981;51.022;-2.870;2023-11-25T08:40:36;31.58;;;24.92;;
78664;SDS011;67981;51.022;-2.870;2023-11-25T08:43:05;35.38;;;27.88;;
78664;SDS011;67981;51.022;-2.870;2023-11-25T08:45:34;21.67;;;16.83;;
78664;SDS011;67981;51.022;-2.870;2023-11-25T08:48:02;23.67;;;20.90;;
78664;SDS011;67981;51.022;-2.870;2023-11-25T08:50:28;16.13;;;11.07;;
78664;SDS011;67981;51.022;-2.870;2023-11-25T08:52:53;38.83;;;26.20;;
78664;SDS011;67981;51.022;-2.870;2023-11-25T08:55:19;81.60;;;61.53;;
78664;SDS011;67981;51.022;-2.870;2023-11-25T08:57:47;47.42;;;34.38;;
78664;SDS011;67981;51.022;-2.870;2023-11-25T09:00:13;37.88;;;22.05;;
78664;SDS011;67981;51.022;-2.870;2023-11-25T09:02:45;28.23;;;16.40;;
78664;SDS011;67981;51.022;-2.870;2023-11-25T09:05:22;11.63;;;8.38;;
78664;SDS011;67981;51.022;-2.870;2023-11-25T09:07:51;7.15;;;3.50;;
78664;SDS011;67981;51.022;-2.870;2023-11-25T09:10:17;4.78;;;3.13;;
78664;SDS011;67981;51.022;-2.870;2023-11-25T09:12:43;14.57;;;8.98;;
78664;SDS011;67981;51.022;-2.870;2023-11-25T09:15:10;7.40;;;5.32;;
78664;SDS011;67981;51.022;-2.870;2023-11-25T09:17:38;35.25;;;27.35;;
78664;SDS011;67981;51.022;-2.870;2023-11-25T09:20:07;28.27;;;23.90;;
78664;SDS011;67981;51.022;-2.870;2023-11-25T09:22:40;12.98;;;4.07;;
78664;SDS011;67981;51.022;-2.870;2023-11-25T09:25:07;10.00;;;6.20;;
78664;SDS011;67981;51.022;-2.870;2023-11-25T09:27:37;6.00;;;3.53;;
78664;SDS011;67981;51.022;-2.870;2023-11-25T09:30:06;9.63;;;3.83;;
78664;SDS011;67981;51.022;-2.870;2023-11-25T09:32:36;9.48;;;3.50;;
78664;SDS011;67981;51.022;-2.870;2023-11-25T09:35:01;8.02;;;5.13;;
78664;SDS011;67981;51.022;-2.870;2023-11-25T09:37:27;10.05;;;4.35;;
78664;SDS011;67981;51.022;-2.870;2023-11-25T09:39:52;6.22;;;4.15;;
78664;SDS011;67981;51.022;-2.870;2023-11-25T09:42:18;8.68;;;4.55;;
78664;SDS011;67981;51.022;-2.870;2023-11-25T09:44:43;10.65;;;5.85;;
78664;SDS011;67981;51.022;-2.870;2023-11-25T09:47:09;8.82;;;4.88;;
78664;SDS011;67981;51.022;-2.870;2023-11-25T09:49:34;7.25;;;5.20;;
78664;SDS011;67981;51.022;-2.870;2023-11-25T09:52:01;5.93;;;3.58;;
78664;SDS011;67981;51.022;-2.870;2023-11-25T09:54:31;10.40;;;3.72;;
78664;SDS011;67981;51.022;-2.870;2023-11-25T09:56:56;9.00;;;4.45;;
78664;SDS011;67981;51.022;-2.870;2023-11-25T09:59:23;8.35;;;4.03;;
78664;SDS011;67981;51.022;-2.870;2023-11-25T10:01:51;65.15;;;19.33;;
78664;SDS011;67981;51.022;-2.870;2023-11-25T10:04:17;19.73;;;10.80;;
78664;SDS011;67981;51.022;-2.870;2023-11-25T10:06:43;14.68;;;12.27;;
78664;SDS011;67981;51.022;-2.870;2023-11-25T10:09:13;12.75;;;6.95;;
78664;SDS011;67981;51.022;-2.870;2023-11-25T10:11:40;12.00;;;8.52;;
78664;SDS011;67981;51.022;-2.870;2023-11-25T10:14:10;12.32;;;9.10;;
78664;SDS011;67981;51.022;-2.870;2023-11-25T10:16:42;14.13;;;8.70;;
78664;SDS011;67981;51.022;-2.870;2023-11-25T10:19:22;24.95;;;15.55;;
78664;SDS011;67981;51.022;-2.870;2023-11-25T10:21:48;12.48;;;8.70;;
78664;SDS011;67981;51.022;-2.870;2023-11-25T10:24:18;9.63;;;7.15;;
78664;SDS011;67981;51.022;-2.870;2023-11-25T10:26:46;9.77;;;7.07;;
78664;SDS011;67981;51.022;-2.870;2023-11-25T10:29:15;15.43;;;9.10;;
78664;SDS011;67981;51.022;-2.870;2023-11-25T10:31:43;18.00;;;11.65;;
78664;SDS011;67981;51.022;-2.870;2023-11-25T10:34:09;14.82;;;8.07;;
78664;SDS011;67981;51.022;-2.870;2023-11-25T10:36:38;11.70;;;7.35;;
78664;SDS011;67981;51.022;-2.870;2023-11-25T10:39:07;14.25;;;7.90;;
78664;SDS011;67981;51.022;-2.870;2023-11-25T10:41:36;13.73;;;8.15;;
78664;SDS011;67981;51.022;-2.870;2023-11-25T10:44:05;12.00;;;7.93;;
78664;SDS011;67981;51.022;-2.870;2023-11-25T10:46:39;14.10;;;8.48;;
78664;SDS011;67981;51.022;-2.870;2023-11-25T10:49:06;13.02;;;8.38;;
78664;SDS011;67981;51.022;-2.870;2023-11-25T10:51:33;14.13;;;8.43;;
78664;SDS011;67981;51.022;-2.870;2023-11-25T10:53:59;20.27;;;12.23;;
78664;SDS011;67981;51.022;-2.870;2023-11-25T10:56:25;15.02;;;10.10;;
78664;SDS011;67981;51.022;-2.870;2023-11-25T10:58:52;16.77;;;9.45;;
78664;SDS011;67981;51.022;-2.870;2023-11-25T11:01:18;17.20;;;10.30;;
78664;SDS011;67981;51.022;-2.870;2023-11-25T11:06:20;12.00;;;8.55;;
78664;SDS011;67981;51.022;-2.870;2023-11-25T11:08:49;36.53;;;16.65;;
78664;SDS011;67981;51.022;-2.870;2023-11-25T11:11:17;25.33;;;13.57;;
78664;SDS011;67981;51.022;-2.870;2023-11-25T11:14:00;27.65;;;17.27;;
78664;SDS011;67981;51.022;-2.870;2023-11-25T11:19:35;11.88;;;7.03;;
78664;SDS011;67981;51.022;-2.870;2023-11-25T11:22:05;7.40;;;4.57;;
78664;SDS011;67981;51.022;-2.870;2023-11-25T11:25:18;12.45;;;4.57;;
78664;SDS011;67981;51.022;-2.870;2023-11-25T11:27:36;5.45;;;3.17;;
78664;SDS011;67981;51.022;-2.870;2023-11-25T11:30:21;8.07;;;3.92;;
78664;SDS011;67981;51.022;-2.870;2023-11-25T11:33:08;9.10;;;4.03;;
78664;SDS011;67981;51.022;-2.870;2023-11-25T11:35:40;8.80;;;5.03;;
78664;SDS011;67981;51.022;-2.870;2023-11-25T11:40:55;10.23;;;4.55;;
78664;SDS011;67981;51.022;-2.870;2023-11-25T11:43:24;10.63;;;5.70;;
78664;SDS011;67981;51.022;-2.870;2023-11-25T11:45:50;14.95;;;8.05;;
78664;SDS011;67981;51.022;-2.870;2023-11-25T11:48:15;20.52;;;9.77;;
78664;SDS011;67981;51.022;-2.870;2023-11-25T11:50:42;16.20;;;10.55;;
78664;SDS011;67981;51.022;-2.870;2023-11-25T11:55:41;12.35;;;6.55;;
78664;SDS011;67981;51.022;-2.870;2023-11-25T11:58:21;6.45;;;2.55;;
78664;SDS011;67981;51.022;-2.870;2023-11-25T12:03:31;8.35;;;4.18;;
78664;SDS011;67981;51.022;-2.870;2023-11-25T12:05:58;15.98;;;6.32;;
78664;SDS011;67981;51.022;-2.870;2023-11-25T12:08:24;19.25;;;7.32;;
78664;SDS011;67981;51.022;-2.870;2023-11-25T12:10:52;11.93;;;8.60;;
78664;SDS011;67981;51.022;-2.870;2023-11-25T12:13:28;15.10;;;7.80;;
78664;SDS011;67981;51.022;-2.870;2023-11-25T12:15:55;12.80;;;7.97;;
78664;SDS011;67981;51.022;-2.870;2023-11-25T12:18:27;11.05;;;5.30;;
78664;SDS011;67981;51.022;-2.870;2023-11-25T12:20:55;7.68;;;3.08;;
78664;SDS011;67981;51.022;-2.870;2023-11-25T12:23:23;4.93;;;2.83;;
78664;SDS011;67981;51.022;-2.870;2023-11-25T12:25:50;8.55;;;3.85;;
78664;SDS011;67981;51.022;-2.870;2023-11-25T12:28:15;8.27;;;3.15;;
78664;SDS011;67981;51.022;-2.870;2023-11-25T12:30:41;5.57;;;2.15;;
78664;SDS011;67981;51.022;-2.870;2023-11-25T12:33:07;5.72;;;2.60;;
78664;SDS011;67981;51.022;-2.870;2023-11-25T12:35:34;5.65;;;2.63;;
78664;SDS011;67981;51.022;-2.870;2023-11-25T12:38:01;5.68;;;2.25;;
78664;SDS011;67981;51.022;-2.870;2023-11-25T12:40:30;3.88;;;2.00;;
78664;SDS011;67981;51.022;-2.870;2023-11-25T12:42:56;4.50;;;2.60;;
78664;SDS011;67981;51.022;-2.870;2023-11-25T12:45:41;5.50;;;2.50;;
78664;SDS011;67981;51.022;-2.870;2023-11-25T12:48:12;3.63;;;1.98;;
78664;SDS011;67981;51.022;-2.870;2023-11-25T12:53:26;3.30;;;1.70;;
78664;SDS011;67981;51.022;-2.870;2023-11-25T12:55:51;4.50;;;2.60;;
78664;SDS011;67981;51.022;-2.870;2023-11-25T12:58:18;5.32;;;1.52;;
78664;SDS011;67981;51.022;-2.870;2023-11-25T13:03:09;4.55;;;2.42;;
78664;SDS011;67981;51.022;-2.870;2023-11-25T13:05:35;5.85;;;2.40;;
78664;SDS011;67981;51.022;-2.870;2023-11-25T13:08:17;4.40;;;2.35;;
78664;SDS011;67981;51.022;-2.870;2023-11-25T13:10:44;3.38;;;1.50;;
78664;SDS011;67981;51.022;-2.870;2023-11-25T13:13:09;6.03;;;2.15;;
78664;SDS011;67981;51.022;-2.870;2023-11-25T13:15:35;3.38;;;2.00;;
78664;SDS011;67981;51.022;-2.870;2023-11-25T13:18:01;9.55;;;2.65;;
78664;SDS011;67981;51.022;-2.870;2023-11-25T13:20:26;5.78;;;2.10;;
78664;SDS011;67981;51.022;-2.870;2023-11-25T13:22:51;4.88;;;2.50;;
78664;SDS011;67981;51.022;-2.870;2023-11-25T13:25:17;5.03;;;2.15;;
78664;SDS011;67981;51.022;-2.870;2023-11-25T13:27:44;5.25;;;2.42;;
78664;SDS011;67981;51.022;-2.870;2023-11-25T13:30:09;6.15;;;2.20;;
78664;SDS011;67981;51.022;-2.870;2023-11-25T13:32:36;7.85;;;3.17;;
78664;SDS011;67981;51.022;-2.870;2023-11-25T13:35:02;10.00;;;2.92;;
78664;SDS011;67981;51.022;-2.870;2023-11-25T13:37:27;6.63;;;2.25;;
78664;SDS011;67981;51.022;-2.870;2023-11-25T13:39:54;5.18;;;1.70;;
78664;SDS011;67981;51.022;-2.870;2023-11-25T13:42:19;5.60;;;2.15;;
78664;SDS011;67981;51.022;-2.870;2023-11-25T13:44:46;4.68;;;2.25;;
78664;SDS011;67981;51.022;-2.870;2023-11-25T13:47:12;8.88;;;2.72;;
78664;SDS011;67981;51.022;-2.870;2023-11-25T13:49:37;4.93;;;2.40;;
78664;SDS011;67981;51.022;-2.870;2023-11-25T13:52:03;7.28;;;2.35;;
78664;SDS011;67981;51.022;-2.870;2023-11-25T13:54:30;6.80;;;2.65;;
78664;SDS011;67981;51.022;-2.870;2023-11-25T13:56:56;5.18;;;2.13;;
78664;SDS011;67981;51.022;-2.870;2023-11-25T13:59:21;4.20;;;2.10;;
78664;SDS011;67981;51.022;-2.870;2023-11-25T14:01:47;5.35;;;2.00;;
78664;SDS011;67981;51.022;-2.870;2023-11-25T14:04:13;7.88;;;2.30;;
78664;SDS011;67981;51.022;-2.870;2023-11-25T14:06:39;4.22;;;2.00;;
78664;SDS011;67981;51.022;-2.870;2023-11-25T14:09:05;5.25;;;2.08;;
78664;SDS011;67981;51.022;-2.870;2023-11-25T14:11:30;7.55;;;2.50;;
78664;SDS011;67981;51.022;-2.870;2023-11-25T14:13:56;5.38;;;2.63;;
78664;SDS011;67981;51.022;-2.870;2023-11-25T14:16:22;4.50;;;1.92;;
78664;SDS011;67981;51.022;-2.870;2023-11-25T14:18:49;7.10;;;2.05;;
78664;SDS011;67981;51.022;-2.870;2023-11-25T14:21:15;3.65;;;2.17;;
78664;SDS011;67981;51.022;-2.870;2023-11-25T14:23:40;6.70;;;2.63;;
78664;SDS011;67981;51.022;-2.870;2023-11-25T14:26:05;6.88;;;2.33;;
78664;SDS011;67981;51.022;-2.870;2023-11-25T14:28:31;7.30;;;2.53;;
78664;SDS011;67981;51.022;-2.870;2023-11-25T14:30:56;6.28;;;2.60;;
78664;SDS011;67981;51.022;-2.870;2023-11-25T14:33:22;6.63;;;2.42;;
78664;SDS011;67981;51.022;-2.870;2023-11-25T14:35:48;4.20;;;1.60;;
78664;SDS011;67981;51.022;-2.870;2023-11-25T14:38:14;7.47;;;3.05;;
78664;SDS011;67981;51.022;-2.870;2023-11-25T14:40:39;6.55;;;2.80;;
78664;SDS011;67981;51.022;-2.870;2023-11-25T14:43:05;4.10;;;2.72;;
78664;SDS011;67981;51.022;-2.870;2023-11-25T14:45:30;4.57;;;2.58;;
78664;SDS011;67981;51.022;-2.870;2023-11-25T14:47:56;5.38;;;2.63;;
78664;SDS011;67981;51.022;-2.870;2023-11-25T14:50:21;6.38;;;3.67;;